Morgan City, Mississippi
Current Conditions -  °F | °C
As of 11:53 AM on Thursday 18 Dec 2014 (Local Time) from KGWO Reporting Station
Overcast Overcast  
Wind Chill:   Ceiling: 3700
Heat Index:   Visibility: 10mi
Dew Point:   Wind: 0mph
Humidity: 77%   Direction: NA
Pressure: 30.21"   Gusts: NA
Location:  33.38°N, 90.35°W
Report Text: KGWO 181753Z AUTO 00000KT 10SM OVC037 09/05 A3021 RMK AO2 SLP229 60003 T00890050 10094 20056 58007
Loading
Personal Weather Stations






























Interactive Weather Map New forecast layout! Learn more

10-Day Weather Forecast

Advertisements
Track Severe Weather on mobile